createdAt,value
2023-02-22T00:01:49.002Z,7.10
2023-02-22T00:04:22.051Z,7.10
2023-02-22T00:07:01.332Z,7.00
2023-02-22T00:09:43.293Z,7.00
2023-02-22T00:12:15.178Z,7.00
2023-02-22T00:14:51.321Z,6.90
2023-02-22T00:17:27.426Z,6.90
2023-02-22T00:20:14.455Z,6.90
2023-02-22T00:22:56.709Z,6.90
2023-02-22T00:25:28.641Z,6.90
2023-02-22T00:28:03.030Z,6.80
2023-02-22T00:30:36.191Z,6.70
2023-02-22T00:33:06.418Z,6.80
2023-02-22T00:35:46.395Z,6.70
2023-02-22T00:38:36.481Z,6.70
2023-02-22T00:41:07.768Z,6.60
2023-02-22T00:43:44.880Z,6.60
2023-02-22T00:46:17.599Z,6.60
2023-02-22T00:48:48.046Z,6.60
2023-02-22T00:51:18.098Z,6.60
2023-02-22T00:53:51.329Z,6.50
2023-02-22T00:56:24.125Z,6.60
2023-02-22T00:58:55.242Z,6.50
2023-02-22T01:01:27.692Z,6.50
2023-02-22T01:03:57.591Z,6.50
2023-02-22T01:06:35.067Z,6.50
2023-02-22T01:09:26.636Z,6.40
2023-02-22T01:12:01.074Z,6.40
2023-02-22T01:14:34.431Z,6.40
2023-02-22T01:17:18.038Z,6.40
2023-02-22T01:19:53.899Z,6.40
2023-02-22T01:22:26.874Z,6.40
2023-02-22T01:25:12.380Z,6.40
2023-02-22T01:27:48.508Z,6.40
2023-02-22T01:30:25.925Z,6.30
2023-02-22T01:33:08.974Z,6.30
2023-02-22T01:35:42.167Z,6.30
2023-02-22T01:38:16.776Z,6.30
2023-02-22T01:40:51.336Z,6.30
2023-02-22T01:43:23.394Z,6.30
2023-02-22T01:45:59.664Z,6.20
2023-02-22T01:48:49.949Z,6.20
2023-02-22T01:51:20.939Z,6.20
2023-02-22T01:53:53.759Z,6.20
2023-02-22T01:56:27.114Z,6.20
2023-02-22T01:58:59.802Z,6.10
2023-02-22T02:01:29.416Z,6.10
2023-02-22T02:04:01.641Z,6.00
2023-02-22T02:09:32.346Z,6.00
2023-02-22T02:12:05.348Z,6.00
2023-02-22T02:14:34.348Z,6.00
2023-02-22T02:17:02.967Z,6.10
2023-02-22T02:19:41.803Z,6.10
2023-02-22T02:22:43.601Z,6.10
2023-02-22T02:25:32.303Z,6.10
2023-02-22T02:28:40.497Z,6.10
2023-02-22T02:31:28.923Z,6.10
2023-02-22T02:34:05.376Z,6.10
2023-02-22T02:36:42.678Z,6.00
2023-02-22T02:39:19.627Z,6.10
2023-02-22T02:41:51.776Z,6.00
2023-02-22T02:44:27.771Z,6.00
2023-02-22T02:47:01.852Z,6.00
2023-02-22T02:49:36.610Z,6.00
2023-02-22T02:52:06.936Z,6.00
2023-02-22T02:54:38.332Z,6.00
2023-02-22T02:57:09.383Z,5.90
2023-02-22T02:59:39.734Z,5.90
2023-02-22T03:02:29.008Z,5.90
2023-02-22T03:05:13.133Z,5.90
2023-02-22T03:07:52.065Z,5.90
2023-02-22T03:10:37.923Z,5.80
2023-02-22T03:13:15.127Z,5.90
2023-02-22T03:15:52.604Z,5.90
2023-02-22T03:18:29.697Z,5.90
2023-02-22T03:21:08.370Z,5.90
2023-02-22T03:23:41.773Z,5.90
2023-02-22T03:26:14.430Z,5.90
2023-02-22T03:28:45.473Z,5.80
2023-02-22T03:31:18.416Z,5.90
2023-02-22T03:33:51.694Z,5.90
2023-02-22T03:36:26.510Z,5.90
2023-02-22T03:38:56.751Z,5.90
2023-02-22T03:41:27.585Z,5.90
2023-02-22T03:44:02.391Z,5.90
2023-02-22T03:46:32.893Z,5.90
2023-02-22T03:49:05.881Z,5.90
2023-02-22T03:51:36.455Z,5.90
2023-02-22T03:54:06.025Z,5.90
2023-02-22T03:56:38.398Z,5.90
2023-02-22T03:59:09.324Z,5.90
2023-02-22T04:01:38.012Z,5.90
2023-02-22T04:04:06.920Z,5.80
2023-02-22T04:06:37.210Z,5.80
2023-02-22T04:09:06.442Z,5.80
2023-02-22T04:11:35.306Z,5.80
2023-02-22T04:14:03.986Z,5.80
2023-02-22T04:16:32.829Z,5.80
2023-02-22T04:19:01.357Z,5.80
2023-02-22T04:21:29.946Z,5.80
2023-02-22T04:24:00.512Z,5.80
2023-02-22T04:26:29.162Z,5.80
2023-02-22T04:28:57.785Z,5.80
2023-02-22T04:31:26.354Z,5.80
2023-02-22T04:33:55.299Z,5.80
2023-02-22T04:36:24.177Z,5.80
2023-02-22T04:38:52.647Z,5.80
2023-02-22T04:41:25.298Z,5.80
2023-02-22T04:43:54.511Z,5.80
2023-02-22T04:46:23.216Z,5.80
2023-02-22T04:48:51.884Z,5.80
2023-02-22T04:51:21.270Z,5.80
2023-02-22T04:53:50.251Z,5.80
2023-02-22T04:56:20.255Z,5.80
2023-02-22T04:58:51.845Z,5.80
2023-02-22T05:01:20.907Z,5.80
2023-02-22T05:03:49.999Z,5.80
2023-02-22T05:06:22.965Z,5.80
2023-02-22T05:08:55.205Z,5.80
2023-02-22T05:11:26.431Z,5.80
2023-02-22T05:13:59.152Z,5.80
2023-02-22T05:16:33.669Z,5.80
2023-02-22T05:19:07.513Z,5.80
2023-02-22T05:21:45.145Z,5.80
2023-02-22T05:24:30.696Z,5.70
2023-02-22T05:27:07.039Z,5.70
2023-02-22T05:29:47.253Z,5.70
2023-02-22T05:32:19.352Z,5.70
2023-02-22T05:34:52.525Z,5.80
2023-02-22T05:40:30.692Z,5.80
2023-02-22T05:43:14.875Z,5.70
2023-02-22T05:46:03.194Z,5.80
2023-02-22T05:48:36.947Z,5.90
2023-02-22T05:51:10.505Z,5.80
2023-02-22T05:53:47.108Z,5.90
2023-02-22T05:56:22.102Z,5.90
2023-02-22T05:59:05.833Z,5.90
2023-02-22T06:01:51.386Z,5.90
2023-02-22T06:04:22.202Z,5.90
2023-02-22T06:06:52.161Z,6.00
2023-02-22T06:09:23.618Z,6.00
2023-02-22T06:11:54.724Z,6.00
2023-02-22T06:14:33.290Z,6.00
2023-02-22T06:17:11.153Z,6.00
2023-02-22T06:19:45.560Z,6.00
2023-02-22T06:22:25.938Z,6.10
2023-02-22T06:24:56.905Z,6.10
2023-02-22T06:27:32.984Z,6.10
2023-02-22T06:30:06.104Z,6.10
2023-02-22T06:32:36.714Z,6.10
2023-02-22T06:35:07.162Z,6.10
2023-02-22T06:37:37.081Z,6.10
2023-02-22T06:40:06.482Z,6.10
2023-02-22T06:42:40.562Z,6.10
2023-02-22T06:45:11.825Z,6.20
2023-02-22T06:47:43.480Z,6.20
2023-02-22T06:50:23.234Z,6.20
2023-02-22T06:52:55.267Z,6.20
2023-02-22T06:55:26.096Z,6.20
2023-02-22T06:57:55.010Z,6.20
2023-02-22T07:00:26.156Z,6.20
2023-02-22T07:02:56.940Z,6.20
2023-02-22T07:05:26.828Z,6.30
2023-02-22T07:07:56.676Z,6.30
2023-02-22T07:10:27.384Z,6.30
2023-02-22T07:12:56.212Z,6.30
2023-02-22T07:15:27.835Z,6.30
2023-02-22T07:17:58.649Z,6.30
2023-02-22T07:20:29.241Z,6.30
2023-02-22T07:22:57.756Z,6.40
2023-02-22T07:25:26.816Z,6.50
2023-02-22T07:27:55.547Z,6.50
2023-02-22T07:30:28.127Z,6.60
2023-02-22T07:32:59.428Z,6.60
2023-02-22T07:35:29.823Z,6.70
2023-02-22T07:37:59.330Z,6.60
2023-02-22T07:40:29.458Z,6.70
2023-02-22T07:43:00.639Z,6.70
2023-02-22T07:45:32.010Z,6.80
2023-02-22T07:48:03.923Z,6.80
2023-02-22T07:50:33.664Z,6.80
2023-02-22T07:53:04.376Z,6.80
2023-02-22T07:55:34.505Z,6.80
2023-02-22T07:58:06.233Z,6.80
2023-02-22T08:00:36.394Z,6.80
2023-02-22T08:03:08.467Z,6.80
2023-02-22T08:05:39.392Z,6.80
2023-02-22T08:08:08.603Z,6.80
2023-02-22T08:10:37.320Z,6.90
2023-02-22T08:13:06.698Z,6.90
2023-02-22T08:15:37.371Z,6.90
2023-02-22T08:18:09.212Z,6.90
2023-02-22T08:20:38.680Z,7.00
2023-02-22T08:23:08.708Z,7.00
2023-02-22T08:25:37.303Z,7.10
2023-02-22T08:28:07.874Z,7.20
2023-02-22T08:30:40.213Z,7.10
2023-02-22T08:33:11.164Z,7.20
2023-02-22T08:35:40.866Z,7.30
2023-02-22T08:38:16.881Z,7.30
2023-02-22T08:40:45.581Z,7.30
2023-02-22T08:43:14.612Z,7.40
2023-02-22T08:45:44.514Z,7.50
2023-02-22T08:48:15.133Z,7.50
2023-02-22T08:50:44.486Z,7.60
2023-02-22T08:53:15.026Z,7.70
2023-02-22T08:55:43.845Z,7.70
2023-02-22T08:58:12.566Z,7.70
2023-02-22T09:00:43.245Z,7.70
2023-02-22T09:03:13.376Z,7.80
2023-02-22T09:05:43.947Z,7.80
2023-02-22T09:08:12.547Z,7.80
2023-02-22T09:10:41.821Z,7.90
2023-02-22T09:13:10.845Z,7.90
2023-02-22T09:15:40.004Z,8.00
2023-02-22T09:18:10.998Z,8.00
2023-02-22T09:20:40.044Z,8.10
2023-02-22T09:23:10.574Z,8.10
2023-02-22T09:25:40.870Z,8.20
2023-02-22T09:28:09.666Z,8.20
2023-02-22T09:30:38.507Z,8.30
2023-02-22T09:33:09.926Z,8.30
2023-02-22T09:35:42.116Z,8.40
2023-02-22T09:38:12.433Z,8.50
2023-02-22T09:40:45.421Z,8.50
2023-02-22T09:43:28.574Z,8.60
2023-02-22T09:46:12.088Z,8.60
2023-02-22T09:48:50.086Z,8.70
2023-02-22T09:51:23.588Z,8.70
2023-02-22T09:53:58.453Z,8.70
2023-02-22T09:56:28.385Z,8.80
2023-02-22T09:58:57.984Z,8.90
2023-02-22T10:01:29.199Z,9.00
2023-02-22T10:04:05.255Z,8.90
2023-02-22T10:06:36.428Z,9.10
2023-02-22T10:09:08.976Z,9.20
2023-02-22T10:11:49.802Z,9.30
2023-02-22T10:14:38.564Z,9.30
2023-02-22T10:17:14.354Z,9.40
2023-02-22T10:19:54.827Z,9.40
2023-02-22T10:22:45.949Z,9.60
2023-02-22T10:25:19.962Z,9.70
2023-02-22T10:27:55.080Z,9.80
2023-02-22T10:30:26.100Z,9.90
2023-02-22T10:33:00.665Z,10.00
2023-02-22T10:35:33.780Z,10.00
2023-02-22T10:38:14.983Z,10.10
2023-02-22T10:40:50.760Z,10.20
2023-02-22T10:43:20.034Z,10.20
2023-02-22T10:45:48.751Z,10.20
2023-02-22T10:48:21.171Z,10.20
2023-02-22T10:50:50.552Z,10.30
2023-02-22T10:53:19.113Z,10.40
2023-02-22T10:56:11.734Z,10.40
2023-02-22T10:58:50.923Z,10.40
2023-02-22T11:01:21.681Z,10.40
2023-02-22T11:03:59.692Z,10.50
2023-02-22T11:06:29.418Z,10.70
2023-02-22T11:09:11.208Z,10.60
2023-02-22T11:11:45.347Z,10.70
2023-02-22T11:14:16.378Z,10.90
2023-02-22T11:16:51.822Z,11.00
2023-02-22T11:19:24.342Z,11.10
2023-02-22T11:21:54.989Z,11.00
2023-02-22T11:24:30.388Z,11.00
2023-02-22T11:27:06.716Z,11.10
2023-02-22T11:29:38.114Z,11.20
2023-02-22T11:32:15.752Z,11.20
2023-02-22T11:34:44.521Z,11.30
2023-02-22T11:37:30.411Z,11.40
2023-02-22T11:40:23.613Z,11.50
2023-02-22T11:43:12.097Z,11.60
2023-02-22T11:45:49.840Z,11.60
2023-02-22T11:48:25.192Z,11.70
2023-02-22T11:51:04.222Z,11.80
2023-02-22T11:53:47.114Z,11.80
2023-02-22T11:56:28.500Z,11.80
2023-02-22T11:59:16.846Z,11.80
2023-02-22T12:01:51.265Z,11.80
2023-02-22T12:04:41.136Z,11.80
2023-02-22T12:07:15.487Z,11.70
2023-02-22T12:09:49.254Z,11.90
2023-02-22T12:12:25.140Z,11.90
2023-02-22T12:15:04.087Z,11.80
2023-02-22T12:17:43.641Z,11.90
2023-02-22T12:20:24.887Z,11.90
2023-02-22T12:23:00.798Z,12.00
2023-02-22T12:25:33.209Z,12.00
2023-02-22T12:28:23.715Z,12.20
2023-02-22T12:31:04.673Z,12.20
2023-02-22T12:33:43.324Z,12.20
2023-02-22T12:36:17.037Z,12.20
2023-02-22T12:38:51.936Z,12.00
2023-02-22T12:41:28.011Z,12.00
2023-02-22T12:44:03.568Z,12.00
2023-02-22T12:46:38.163Z,11.80
2023-02-22T12:49:15.209Z,11.80
2023-02-22T12:51:49.661Z,11.40
2023-02-22T12:54:25.641Z,11.30
2023-02-22T12:57:00.175Z,11.20
2023-02-22T12:59:33.893Z,11.00
2023-02-22T13:02:12.901Z,11.00
2023-02-22T13:04:41.649Z,10.90
2023-02-22T13:07:17.633Z,10.90
2023-02-22T13:10:10.112Z,10.90
2023-02-22T13:12:51.373Z,10.70
2023-02-22T13:15:26.100Z,10.50
2023-02-22T13:18:04.117Z,10.50
2023-02-22T13:20:36.630Z,10.40
2023-02-22T13:23:12.297Z,10.40
2023-02-22T13:25:47.467Z,10.40
2023-02-22T13:28:29.083Z,10.50
2023-02-22T13:31:15.974Z,10.50
2023-02-22T13:34:05.788Z,10.50
2023-02-22T13:36:54.364Z,10.60
2023-02-22T13:40:02.490Z,10.40
2023-02-22T13:42:59.685Z,10.20
2023-02-22T13:45:50.732Z,10.20
2023-02-22T13:48:36.067Z,10.30
2023-02-22T13:51:20.969Z,10.30
2023-02-22T13:53:55.412Z,10.30
2023-02-22T13:56:26.404Z,10.20
2023-02-22T13:58:58.176Z,10.30
2023-02-22T14:01:41.763Z,10.20
2023-02-22T14:04:46.769Z,10.10
2023-02-22T14:07:57.818Z,10.10
2023-02-22T14:10:47.134Z,10.10
2023-02-22T14:13:17.134Z,10.10
2023-02-22T14:16:19.296Z,10.10
2023-02-22T14:18:50.732Z,10.20
2023-02-22T14:21:20.582Z,9.90
2023-02-22T14:23:49.753Z,9.90
2023-02-22T14:26:24.079Z,9.90
2023-02-22T14:28:56.969Z,9.90
2023-02-22T14:31:37.565Z,9.90
2023-02-22T14:34:11.347Z,9.90
2023-02-22T14:36:55.034Z,9.90
2023-02-22T14:39:32.531Z,9.90
2023-02-22T14:42:07.451Z,9.90
2023-02-22T14:44:40.079Z,9.90
2023-02-22T14:47:15.055Z,9.80
2023-02-22T14:49:47.903Z,9.80
2023-02-22T14:52:25.144Z,9.80
2023-02-22T14:55:04.286Z,9.70
2023-02-22T14:57:45.891Z,9.80
2023-02-22T15:00:22.612Z,9.80
2023-02-22T15:02:57.222Z,9.70
2023-02-22T15:05:29.918Z,9.70
2023-02-22T15:08:00.313Z,9.60
2023-02-22T15:10:31.303Z,9.50
2023-02-22T15:13:10.500Z,9.50
2023-02-22T15:15:43.729Z,9.50
2023-02-22T15:18:27.196Z,9.40
2023-02-22T15:20:58.866Z,9.40
2023-02-22T15:23:33.770Z,9.30
2023-02-22T15:26:03.664Z,9.20
2023-02-22T15:28:36.515Z,9.10
2023-02-22T15:31:24.850Z,9.00
2023-02-22T15:33:54.745Z,9.00
2023-02-22T15:36:25.985Z,9.00
2023-02-22T15:38:56.886Z,9.00
2023-02-22T15:41:29.880Z,8.90
2023-02-22T15:44:07.906Z,8.90
2023-02-22T15:46:42.738Z,8.90
2023-02-22T15:49:24.291Z,8.80
2023-02-22T15:52:09.405Z,8.80
2023-02-22T15:54:44.683Z,8.80
2023-02-22T15:57:17.068Z,8.80
2023-02-22T15:59:51.510Z,8.70
2023-02-22T16:02:34.108Z,8.70
2023-02-22T16:05:06.817Z,8.70
2023-02-22T16:07:41.887Z,8.60
2023-02-22T16:10:24.720Z,8.60
2023-02-22T16:13:06.432Z,8.50
2023-02-22T16:15:36.995Z,8.40
2023-02-22T16:18:27.463Z,8.40
2023-02-22T16:21:01.313Z,8.30
2023-02-22T16:23:33.225Z,8.20
2023-02-22T16:26:24.845Z,8.20
2023-02-22T16:28:56.155Z,8.00
2023-02-22T16:31:28.086Z,7.90
2023-02-22T16:33:56.880Z,7.80
2023-02-22T16:36:39.060Z,7.80
2023-02-22T16:39:08.948Z,7.70
2023-02-22T16:41:37.197Z,7.60
2023-02-22T16:44:07.821Z,7.60
2023-02-22T16:46:37.818Z,7.50
2023-02-22T16:49:06.549Z,7.40
2023-02-22T16:51:42.797Z,7.40
2023-02-22T16:54:13.988Z,7.30
2023-02-22T16:56:42.611Z,7.30
2023-02-22T16:59:15.073Z,7.20
2023-02-22T17:01:45.322Z,7.20
2023-02-22T17:04:19.885Z,7.10
2023-02-22T17:06:49.334Z,7.10
2023-02-22T17:09:19.914Z,7.10
2023-02-22T17:11:50.058Z,7.10
2023-02-22T17:14:23.260Z,7.10
2023-02-22T17:16:53.888Z,7.00
2023-02-22T17:19:27.627Z,7.00
2023-02-22T17:21:56.112Z,6.90
2023-02-22T17:24:29.043Z,6.80
2023-02-22T17:26:59.921Z,6.80
2023-02-22T17:29:28.968Z,6.70
2023-02-22T17:31:59.008Z,6.60
2023-02-22T17:34:28.053Z,6.50
2023-02-22T17:36:56.816Z,6.40
2023-02-22T17:39:27.264Z,6.50
2023-02-22T17:41:57.909Z,6.40
2023-02-22T17:44:26.611Z,6.30
2023-02-22T17:46:55.074Z,6.20
2023-02-22T17:49:24.819Z,6.10
2023-02-22T17:51:53.659Z,6.00
2023-02-22T17:54:23.095Z,5.80
2023-02-22T17:56:51.473Z,5.60
2023-02-22T17:59:19.891Z,5.50
2023-02-22T18:01:48.916Z,5.50
2023-02-22T18:04:17.318Z,5.50
2023-02-22T18:06:47.416Z,5.40
2023-02-22T18:09:17.739Z,5.30
2023-02-22T18:11:46.247Z,5.20
2023-02-22T18:14:14.634Z,5.10
2023-02-22T18:16:43.065Z,5.00
2023-02-22T18:19:11.497Z,4.90
2023-02-22T18:21:39.867Z,4.90
2023-02-22T18:24:09.920Z,4.90
2023-02-22T18:26:40.186Z,4.90
2023-02-22T18:29:12.301Z,4.80
2023-02-22T18:31:40.834Z,4.60
2023-02-22T18:34:12.938Z,4.60
2023-02-22T18:36:41.359Z,4.50
2023-02-22T18:39:13.205Z,4.40
2023-02-22T18:41:41.723Z,4.30
2023-02-22T18:44:11.074Z,4.20
2023-02-22T18:46:39.634Z,4.20
2023-02-22T18:49:08.119Z,4.20
2023-02-22T18:51:36.546Z,4.20
2023-02-22T18:54:05.085Z,4.20
2023-02-22T18:56:34.824Z,4.10
2023-02-22T18:59:04.785Z,4.10
2023-02-22T19:01:38.673Z,4.10
2023-02-22T19:04:09.702Z,4.10
2023-02-22T19:06:38.965Z,4.00
2023-02-22T19:09:08.840Z,4.00
2023-02-22T19:11:40.458Z,3.90
2023-02-22T19:14:09.687Z,3.90
2023-02-22T19:16:38.403Z,3.80
2023-02-22T19:19:06.946Z,3.90
2023-02-22T19:21:35.370Z,4.00
2023-02-22T19:24:04.486Z,4.00
2023-02-22T19:26:33.055Z,4.10
2023-02-22T19:29:08.279Z,4.10
2023-02-22T19:31:36.858Z,4.20
2023-02-22T19:34:08.893Z,4.30
2023-02-22T19:36:39.677Z,4.30
2023-02-22T19:39:08.176Z,4.20
2023-02-22T19:41:36.604Z,4.20
2023-02-22T19:44:06.700Z,4.20
2023-02-22T19:46:35.788Z,4.30
2023-02-22T19:49:05.129Z,4.30
2023-02-22T19:51:34.347Z,4.40
2023-02-22T19:54:05.621Z,4.40
2023-02-22T19:56:35.643Z,4.40
2023-02-22T19:59:10.838Z,4.50
2023-02-22T20:01:39.284Z,4.50
2023-02-22T20:04:09.970Z,4.50
2023-02-22T20:06:41.011Z,4.60
2023-02-22T20:09:12.257Z,4.60
2023-02-22T20:11:41.059Z,4.70
2023-02-22T20:14:17.754Z,4.70
2023-02-22T20:16:46.445Z,4.80
2023-02-22T20:19:15.130Z,4.80
2023-02-22T20:21:43.606Z,4.80
2023-02-22T20:24:14.997Z,4.90
2023-02-22T20:26:44.287Z,4.90
2023-02-22T20:29:15.449Z,5.00
2023-02-22T20:31:47.312Z,5.00
2023-02-22T20:34:15.804Z,5.00
2023-02-22T20:36:44.209Z,5.00
2023-02-22T20:39:14.602Z,5.00
2023-02-22T20:41:45.866Z,5.00
2023-02-22T20:44:18.044Z,5.00
2023-02-22T20:46:47.966Z,4.90
2023-02-22T20:49:18.853Z,4.90
2023-02-22T20:51:48.081Z,5.00
2023-02-22T20:54:17.248Z,5.00
2023-02-22T20:56:47.453Z,4.90
2023-02-22T20:59:19.768Z,4.90
2023-02-22T21:01:49.953Z,4.90
2023-02-22T21:04:18.509Z,4.90
2023-02-22T21:06:47.630Z,4.80
2023-02-22T21:09:17.698Z,4.80
2023-02-22T21:11:46.852Z,4.80
2023-02-22T21:14:18.704Z,4.80
2023-02-22T21:16:48.753Z,4.80
2023-02-22T21:19:25.328Z,4.80
2023-02-22T21:21:55.440Z,4.70
2023-02-22T21:24:25.030Z,4.80
2023-02-22T21:26:53.781Z,4.80
2023-02-22T21:29:23.873Z,4.70
2023-02-22T21:31:52.598Z,4.70
2023-02-22T21:34:22.275Z,4.80
2023-02-22T21:36:52.463Z,4.80
2023-02-22T21:39:21.966Z,4.70
2023-02-22T21:41:52.090Z,4.70
2023-02-22T21:44:20.664Z,4.60
2023-02-22T21:46:50.597Z,4.50
2023-02-22T21:49:22.427Z,4.50
2023-02-22T21:51:52.599Z,4.60
2023-02-22T21:54:21.410Z,4.50
2023-02-22T21:56:50.421Z,4.50
2023-02-22T21:59:20.656Z,4.40
2023-02-22T22:01:55.469Z,4.40
2023-02-22T22:04:27.429Z,4.30
2023-02-22T22:06:57.689Z,4.30
2023-02-22T22:09:32.577Z,4.40
2023-02-22T22:12:05.131Z,4.40
2023-02-22T22:14:35.466Z,4.30
2023-02-22T22:17:09.202Z,4.30
2023-02-22T22:19:40.429Z,4.40
2023-02-22T22:22:09.348Z,4.30
2023-02-22T22:24:41.393Z,4.30
2023-02-22T22:27:12.809Z,4.30
2023-02-22T22:29:43.607Z,4.20
2023-02-22T22:32:13.783Z,4.20
2023-02-22T22:34:43.148Z,4.10
2023-02-22T22:37:13.160Z,4.20
2023-02-22T22:39:42.359Z,4.10
2023-02-22T22:42:10.935Z,4.20
2023-02-22T22:44:41.939Z,4.20
2023-02-22T22:47:12.428Z,4.30
2023-02-22T22:49:42.604Z,4.40
2023-02-22T22:52:13.828Z,4.40
2023-02-22T22:54:43.249Z,4.30
2023-02-22T22:57:12.384Z,4.30
2023-02-22T22:59:40.817Z,4.40
2023-02-22T23:02:11.392Z,4.40
2023-02-22T23:04:39.814Z,4.50
2023-02-22T23:07:09.806Z,4.40
2023-02-22T23:09:39.495Z,4.40
2023-02-22T23:12:17.930Z,4.40
2023-02-22T23:14:47.004Z,4.40
2023-02-22T23:17:30.811Z,4.40
2023-02-22T23:19:59.359Z,4.30
2023-02-22T23:22:29.155Z,4.30
2023-02-22T23:24:59.742Z,4.20
2023-02-22T23:27:28.441Z,4.30
2023-02-22T23:29:56.846Z,4.30
2023-02-22T23:32:26.769Z,4.20
2023-02-22T23:34:55.669Z,4.30
2023-02-22T23:37:24.626Z,4.20
2023-02-22T23:39:54.443Z,4.20
2023-02-22T23:42:23.059Z,4.20
2023-02-22T23:44:52.970Z,4.30
2023-02-22T23:47:21.533Z,4.30
2023-02-22T23:49:50.386Z,4.20
2023-02-22T23:52:23.851Z,4.20
2023-02-22T23:54:53.839Z,4.20
2023-02-22T23:57:25.912Z,4.20
2023-02-22T23:59:54.390Z,4.30
